Flight Track Log - Related Links

Times and Time Zones

All times are in EDT time to prevent confusion due to time zone crossing. See the AAY828 flight status page for this flight to view local times or setup timezone preferences in your user account.

Time Position Orientation Groundspeed Altitude Reporting Facility
EDT Latitude Longitude Course Direction KTS MPH feet Rate Location/Type
Wed 11:12:24 AM 27.8833 -82.6833 196° South 170 196 1,000  Level Tampa TRACON
Wed 11:13:31 AM 27.8333 -82.7000 270° West 204 235 2,500 1,323 Climbing Tampa TRACON
Wed 11:14:31 AM 27.8333 -82.7667 348° North 271 312 3,800 737 Climbing Tampa TRACON
Wed 11:15:25 AM 27.9000 -82.7833 10° North 280 322 3,900 1,095 Climbing Tampa TRACON
Wed 11:16:37 AM 27.9833 -82.7667 North 283 326 6,100 2,019 Climbing Tampa TRACON
Wed 11:18:59 AM 28.1811 -82.7325 10° North 290 334 11,100 1,990 Climbing Jacksonville Center
Wed 11:19:59 AM 28.2875 -82.7111 North 335 386 12,800 1,900 Climbing Jacksonville Center
Wed 11:20:59 AM 28.4044 -82.6992 North 384 442 14,900 2,400 Climbing Jacksonville Center
Wed 11:21:59 AM 28.5233 -82.6917 North 415 478 17,600 2,650 Climbing Jacksonville Center
Wed 11:22:59 AM 28.6403 -82.6892 North 422 486 20,200 2,250 Climbing Jacksonville Center
Wed 11:23:59 AM 28.7425 -82.6819 North 417 480 22,100 1,600 Climbing Jacksonville Center
Wed 11:24:59 AM 28.8592 -82.6744 North 411 473 23,400 1,050 Climbing Jacksonville Center
Wed 11:25:59 AM 28.9803 -82.6694 North 418 481 24,200 1,100 Climbing Jacksonville Center
Wed 11:26:59 AM 29.1097 -82.6619 North 442 509 25,600 1,550 Climbing Jacksonville Center
Wed 11:27:59 AM 29.2369 -82.6544 North 448 516 27,300 1,400 Climbing Jacksonville Center
Wed 11:28:59 AM 29.3664 -82.6472 North 459 528 28,400 1,150 Climbing Jacksonville Center
Wed 11:29:59 AM 29.4958 -82.6397 North 459 528 29,600 1,100 Climbing Jacksonville Center
Wed 11:30:59 AM 29.6294 -82.6275 North 459 528 30,600 700 Climbing Jacksonville Center
Wed 11:31:59 AM 29.7589 -82.6150 North 464 534 31,000 200 Climbing Jacksonville Center
Wed 11:32:59 AM 29.8903 -82.6028 North 464 534 31,000 -50 Level Jacksonville Center
Wed 11:33:59 AM 30.0197 -82.5950 North 464 534 30,900  Descending Jacksonville Center
Wed 11:34:59 AM 30.1617 -82.5828 North 464 534 31,000  Climbing Jacksonville Center
Wed 11:35:59 AM 30.2911 -82.5725 North 464 534 30,900  Descending Jacksonville Center
Wed 11:36:59 AM 30.4186 -82.5625 North 459 528 31,000  Climbing Jacksonville Center
Wed 11:37:59 AM 30.5500 -82.5525 North 459 528 30,900  Descending Jacksonville Center
Wed 11:38:59 AM 30.6775 -82.5472 North 459 528 31,000  Climbing Jacksonville Center
Wed 11:39:59 AM 30.8089 -82.5419 North 459 528 30,900  Descending Jacksonville Center
Wed 11:40:59 AM 30.9361 -82.5367 North 459 528 31,000  Climbing Jacksonville Center
Wed 11:41:59 AM 31.0656 -82.5311 North 459 528 30,900 -50 Descending Jacksonville Center
Wed 11:42:59 AM 31.1931 -82.5258 North 459 528 30,900  Level Jacksonville Center
Wed 11:43:59 AM 31.3244 -82.5206 North 459 528 30,900 50 Level Jacksonville Center
Wed 11:44:59 AM 31.4539 -82.5078 North 459 528 31,000 32 Climbing Jacksonville Center
Wed 11:47:04 AM 31.7033 -82.4817 North 460 529 31,000  Level Atlanta Center
Wed 11:48:04 AM 31.8325 -82.4597 North 460 529 31,000  Level Atlanta Center
Wed 11:49:04 AM 31.9617 -82.4428 North 460 529 31,000  Level Atlanta Center
Wed 11:50:04 AM 32.0928 -82.4208 North 460 529 31,000  Level Atlanta Center
Wed 11:51:04 AM 32.2200 -82.4014 11° North 460 529 31,000 -150 Level Atlanta Center
Wed 11:52:04 AM 32.3428 -82.3744 North 455 524 30,700 -650 Descending Atlanta Center
Wed 11:53:04 AM 32.4761 -82.3597 North 461 531 29,700 -950 Descending Atlanta Center
Wed 11:54:04 AM 32.6094 -82.3397 North 473 544 28,800 -950 Descending Atlanta Center
Wed 11:55:04 AM 32.7428 -82.3175 North 478 550 27,800 -1,050 Descending Atlanta Center
Wed 11:56:04 AM 32.8719 -82.2978 North 478 550 26,700 -1,050 Descending Atlanta Center
Wed 11:57:04 AM 32.9947 -82.2778 North 463 533 25,700 -950 Descending Atlanta Center
Wed 11:58:04 AM 33.1133 -82.2581 North 448 516 24,800 -850 Descending Atlanta Center
Wed 11:59:04 AM 33.2383 -82.2381 North 440 506 24,000 -400 Descending Atlanta Center
Wed 12:00:04 PM 33.3592 -82.2158 North 440 506 24,000  Level Atlanta Center
Wed 12:01:04 PM 33.4944 -82.1956 North 443 510 24,000  Level Atlanta Center
Wed 12:02:04 PM 33.6172 -82.1728 North 443 510 24,000 -400 Level Atlanta Center
Wed 12:03:04 PM 33.7400 -82.1553 North 443 510 23,200 -500 Descending Atlanta Center
Wed 12:04:04 PM 33.8567 -82.1353 North 438 504 23,000 -800 Descending Atlanta Center
Wed 12:05:04 PM 33.9794 -82.1150 North 438 504 21,600 -1,450 Descending Atlanta Center
Wed 12:06:04 PM 34.0961 -82.0922 North 438 504 20,100 -1,600 Descending Atlanta Center
Wed 12:07:04 PM 34.2086 -82.0744 North 417 480 18,400 -1,500 Descending Atlanta Center
Wed 12:08:04 PM 34.3042 -82.0572 359° North 397 457 17,100 -1,750 Descending Atlanta Center
Wed 12:09:04 PM 34.4044 -82.0600 345° North 379 436 14,900 -2,300 Descending Atlanta Center
Wed 12:10:04 PM 34.5008 -82.0903 325° Northwest 362 417 12,500 -2,400 Descending Atlanta Center
Wed 12:11:04 PM 34.5750 -82.1542 320° Northwest 340 391 10,100 -2,100 Descending Atlanta Center
Wed 12:12:04 PM 34.6386 -82.2186 304° West 315 362 8,300 -2,000 Descending Atlanta Center
Wed 12:13:04 PM 34.6792 -82.2908 297° West 294 338 6,100 -1,438 Descending Atlanta Center
Wed 12:14:05 PM 34.7072 -82.3586 32° Northeast 251 289 5,400 -950 Descending Atlanta Center
Wed 12:15:04 PM 34.7589 -82.3194 32° Northeast 152 175 4,200 -1,220 Descending Atlanta Center

Login

Don't have an account? Register now (free) for customized features, flight alerts, and more!